6.3 C
London
Wednesday, September 28, 2022

INCIDENT: Cargojet B763 at Tokyo, Tail Strike On Departure

- Advertisement - Booking.com
- Advertisement -spot_imgspot_imgspot_imgspot_img

A Cargojet Airways Boeing 767-300 freighter, registration C-GUAJ, was departing Narita’s runway 16R at 11:32L (02:32Z) with two crew on freight flight W8-1328 from Tokyo Narita (Japan) to Vancouver,BC (Canada) when the tail of the aircraft struck the runway surface, releasing a plume of smoke.

The plane lifted out and continued to Vancouver, where it landed around 8:15 a.m.

According to Japan’s Ministry of Transport, the ATC controller detected the tail impact, and a runway assessment revealed contact marks measuring approximately 31 meters in length, 15 centimeters in breadth, and 1-2 centimeters in depth. One of the runway centerline lights was also broken.

Assuming nothing was wrong, the crew continued to their goal. The runway was blocked for roughly 90 minutes while the light was replaced and the runway was made safe. A thorough inquiry of the incident was launched.

The plane stayed on the ground in Vancouver for almost 2.5 hours before continuing on to the next sector of W8-1328 to Chicago O’Hare, IL (USA).

Metars:
RJAA 290430Z 08012KT 9999 FEW035 30/23 Q1011 NOSIG=
RJAA 290400Z 07011KT 9999 FEW035 BKN070 30/22 Q1012 NOSIG=
RJAA 290330Z 06011KT 9999 FEW030 SCT070 BKN/// 31/23 Q1012 BECMG 08010KT=
RJAA 290300Z 09012KT 9999 FEW030 SCT060 BKN/// 30/23 Q1012 NOSIG=
RJAA 290230Z 07011KT 030V110 9999 FEW025 SCT030 BKN/// 30/23 Q1012 NOSIG=
RJAA 290200Z 08012KT 9999 FEW030 SCT040 BKN/// 31/24 Q1012 NOSIG=
RJAA 290130Z 07012KT 9999 FEW025 SCT030 BKN/// 30/23 Q1012 NOSIG=

Source: avherald

Video of the takeoff out of a live stream (Video: love4649jack):

- Advertisement -
Latest news
- Advertisement - Get a .com now from $4.99*/yr with GoDaddy!
- Advertisement -
- Advertisement -
Related news
- Advertisement -spot_img

LEAVE A REPLY

Please enter your comment!
Please enter your name here